EZY35JB EGPH-EGKK
Flight info
| Callsign | EZY35JB |
|---|---|
| Flight time | 1h 17m |
| Altitude | 37000 |
| Route | GOSAM P600 FENIK L612 NAVSO DCT ADZOP DCT EGTOC DCT KEPAD L151 DISIT |
| Aircraft | A320/M-SDE3FGHIRWY/LB1 |
Departure
| Time | 2026-04-23 18:37 |
|---|---|
| Airport | Edinburgh Airport (EGPH) |
Arrival
| Time | 2026-04-23 19:54 |
|---|---|
| Airport | London Gatwick Airport (EGKK) |
| Time | Latitude | Longitude | Altitude | Speed | Heading |
|---|---|---|---|---|---|
| 2026-04-23 18:13 | 55.94976 | -3.36230 | 117 ft | 0 kts | 117° |
| 2026-04-23 18:26 | 55.94979 | -3.36240 | 112 ft | 4 kts | 117° |
| 2026-04-23 18:27 | 55.94992 | -3.36283 | 114 ft | 4 kts | 120° |
| 2026-04-23 18:27 | 55.95006 | -3.36323 | 113 ft | 4 kts | 130° |
| 2026-04-23 18:27 | 55.95024 | -3.36350 | 112 ft | 4 kts | 189° |
| 2026-04-23 18:27 | 55.95031 | -3.36348 | 114 ft | 0 kts | 238° |
| 2026-04-23 18:31 | 55.95030 | -3.36351 | 114 ft | 2 kts | 238° |
| 2026-04-23 18:31 | 55.95016 | -3.36390 | 115 ft | 3 kts | 238° |
| 2026-04-23 18:31 | 55.94993 | -3.36459 | 116 ft | 8 kts | 238° |
| 2026-04-23 18:31 | 55.94967 | -3.36534 | 114 ft | 7 kts | 238° |
| 2026-04-23 18:32 | 55.94926 | -3.36656 | 115 ft | 13 kts | 239° |
| 2026-04-23 18:32 | 55.94894 | -3.36764 | 116 ft | 7 kts | 261° |
| 2026-04-23 18:32 | 55.94918 | -3.36829 | 116 ft | 6 kts | 317° |
| 2026-04-23 18:32 | 55.94918 | -3.36918 | 115 ft | 9 kts | 242° |
| 2026-04-23 18:33 | 55.94887 | -3.37010 | 113 ft | 10 kts | 238° |
| 2026-04-23 18:33 | 55.94854 | -3.37106 | 114 ft | 9 kts | 239° |
| 2026-04-23 18:33 | 55.94822 | -3.37203 | 116 ft | 13 kts | 239° |
| 2026-04-23 18:33 | 55.94773 | -3.37346 | 115 ft | 13 kts | 239° |
| 2026-04-23 18:34 | 55.94730 | -3.37475 | 112 ft | 11 kts | 239° |
| 2026-04-23 18:34 | 55.94688 | -3.37598 | 113 ft | 11 kts | 239° |
| 2026-04-23 18:34 | 55.94649 | -3.37711 | 116 ft | 10 kts | 238° |
| 2026-04-23 18:34 | 55.94611 | -3.37824 | 115 ft | 10 kts | 239° |
| 2026-04-23 18:35 | 55.94593 | -3.37929 | 116 ft | 8 kts | 285° |
| 2026-04-23 18:35 | 55.94625 | -3.37985 | 114 ft | 3 kts | 326° |
| 2026-04-23 18:35 | 55.94644 | -3.38006 | 115 ft | 6 kts | 328° |
| 2026-04-23 18:35 | 55.94689 | -3.38054 | 113 ft | 8 kts | 329° |
| 2026-04-23 18:36 | 55.94730 | -3.38046 | 114 ft | 8 kts | 53° |
| 2026-04-23 18:36 | 55.94861 | -3.37656 | 113 ft | 75 kts | 59° |
| 2026-04-23 18:36 | 55.95246 | -3.36524 | 112 ft | 135 kts | 58° |
| 2026-04-23 18:36 | 55.95791 | -3.34961 | 458 ft | 153 kts | 58° |
| 2026-04-23 18:37 | 55.96458 | -3.33479 | 1193 ft | 152 kts | 47° |
| 2026-04-23 18:37 | 55.97239 | -3.32201 | 1833 ft | 150 kts | 43° |
| 2026-04-23 18:37 | 55.98029 | -3.30999 | 2444 ft | 151 kts | 43° |
| 2026-04-23 18:37 | 55.98872 | -3.29662 | 2730 ft | 171 kts | 43° |
| 2026-04-23 18:38 | 55.99873 | -3.28417 | 3026 ft | 188 kts | 21° |
| 2026-04-23 18:38 | 56.01220 | -3.28139 | 3340 ft | 205 kts | 350° |
| 2026-04-23 18:38 | 56.02534 | -3.29283 | 3540 ft | 220 kts | 314° |
| 2026-04-23 18:38 | 56.03278 | -3.31731 | 3729 ft | 237 kts | 278° |
| 2026-04-23 18:39 | 56.03075 | -3.34778 | 4072 ft | 257 kts | 248° |
| 2026-04-23 18:39 | 56.02473 | -3.37820 | 5021 ft | 262 kts | 253° |
| 2026-04-23 18:39 | 56.02005 | -3.40957 | 5949 ft | 265 kts | 256° |
| 2026-04-23 18:39 | 56.01576 | -3.44190 | 6865 ft | 269 kts | 256° |
| 2026-04-23 18:40 | 56.01154 | -3.47456 | 7772 ft | 270 kts | 256° |
| 2026-04-23 18:40 | 56.00734 | -3.50754 | 8615 ft | 275 kts | 256° |
| 2026-04-23 18:40 | 56.00285 | -3.54110 | 9458 ft | 279 kts | 255° |
| 2026-04-23 18:40 | 55.99818 | -3.57495 | 10339 ft | 282 kts | 255° |
| 2026-04-23 18:41 | 55.99329 | -3.60962 | 10879 ft | 297 kts | 255° |
| 2026-04-23 18:41 | 55.98794 | -3.64695 | 11153 ft | 321 kts | 255° |
| 2026-04-23 18:41 | 55.98236 | -3.68581 | 11665 ft | 332 kts | 255° |
| 2026-04-23 18:41 | 55.97656 | -3.72618 | 12387 ft | 337 kts | 255° |
| 2026-04-23 18:42 | 55.97069 | -3.76683 | 13134 ft | 341 kts | 254° |
| 2026-04-23 18:42 | 55.96153 | -3.80595 | 13861 ft | 344 kts | 237° |
| 2026-04-23 18:42 | 55.94532 | -3.83760 | 14537 ft | 349 kts | 217° |
| 2026-04-23 18:42 | 55.92362 | -3.85717 | 15174 ft | 353 kts | 196° |
| 2026-04-23 18:43 | 55.89934 | -3.86197 | 15815 ft | 358 kts | 179° |
| 2026-04-23 18:43 | 55.87405 | -3.86030 | 16475 ft | 361 kts | 178° |
| 2026-04-23 18:43 | 55.84916 | -3.85841 | 17112 ft | 364 kts | 178° |
| 2026-04-23 18:43 | 55.82370 | -3.85638 | 17752 ft | 367 kts | 177° |
| 2026-04-23 18:44 | 55.79805 | -3.85433 | 18400 ft | 371 kts | 177° |
| 2026-04-23 18:44 | 55.77211 | -3.85231 | 18974 ft | 374 kts | 177° |
| 2026-04-23 18:44 | 55.74598 | -3.85039 | 19507 ft | 377 kts | 177° |
| 2026-04-23 18:44 | 55.71955 | -3.84854 | 20054 ft | 381 kts | 178° |
| 2026-04-23 18:45 | 55.69284 | -3.84673 | 20604 ft | 384 kts | 178° |
| 2026-04-23 18:45 | 55.66633 | -3.84493 | 21134 ft | 387 kts | 177° |
| 2026-04-23 18:45 | 55.63923 | -3.84301 | 21674 ft | 391 kts | 177° |
| 2026-04-23 18:45 | 55.61194 | -3.84105 | 22205 ft | 395 kts | 177° |
| 2026-04-23 18:46 | 55.58427 | -3.83905 | 22729 ft | 398 kts | 177° |
| 2026-04-23 18:46 | 55.55637 | -3.83704 | 23235 ft | 402 kts | 177° |
| 2026-04-23 18:46 | 55.52825 | -3.83503 | 23731 ft | 405 kts | 177° |
| 2026-04-23 18:46 | 55.50030 | -3.83308 | 24181 ft | 409 kts | 177° |
| 2026-04-23 18:47 | 55.47142 | -3.83105 | 24588 ft | 412 kts | 177° |
| 2026-04-23 18:47 | 55.44302 | -3.82902 | 24975 ft | 414 kts | 178° |
| 2026-04-23 18:47 | 55.41400 | -3.82697 | 25367 ft | 417 kts | 178° |
| 2026-04-23 18:47 | 55.38485 | -3.82486 | 25750 ft | 420 kts | 178° |
| 2026-04-23 18:48 | 55.35554 | -3.82273 | 26119 ft | 423 kts | 178° |
| 2026-04-23 18:48 | 55.32601 | -3.82063 | 26485 ft | 425 kts | 178° |
| 2026-04-23 18:48 | 55.29637 | -3.81857 | 26851 ft | 428 kts | 178° |
| 2026-04-23 18:48 | 55.26692 | -3.81652 | 27202 ft | 430 kts | 178° |
| 2026-04-23 18:49 | 55.23679 | -3.81365 | 27550 ft | 433 kts | 174° |
| 2026-04-23 18:49 | 55.20707 | -3.80387 | 27888 ft | 436 kts | 164° |
| 2026-04-23 18:49 | 55.17808 | -3.78740 | 28227 ft | 439 kts | 161° |
| 2026-04-23 18:49 | 55.14897 | -3.77022 | 28559 ft | 442 kts | 161° |
| 2026-04-23 18:50 | 55.12951 | -3.75880 | 28773 ft | 443 kts | 161° |
| 2026-04-23 18:50 | 55.09060 | -3.73605 | 29214 ft | 446 kts | 161° |
| 2026-04-23 18:50 | 55.06099 | -3.71876 | 29536 ft | 449 kts | 161° |
| 2026-04-23 18:50 | 55.03125 | -3.70142 | 29853 ft | 451 kts | 161° |
| 2026-04-23 18:51 | 55.00137 | -3.68405 | 30162 ft | 453 kts | 161° |
| 2026-04-23 18:51 | 54.97175 | -3.66686 | 30458 ft | 455 kts | 161° |
| 2026-04-23 18:51 | 54.94165 | -3.64937 | 30684 ft | 457 kts | 161° |
| 2026-04-23 18:51 | 54.91140 | -3.63180 | 30910 ft | 459 kts | 161° |
| 2026-04-23 18:52 | 54.88096 | -3.61418 | 31124 ft | 461 kts | 161° |
| 2026-04-23 18:52 | 54.85026 | -3.59650 | 31338 ft | 463 kts | 161° |
| 2026-04-23 18:52 | 54.81990 | -3.57904 | 31539 ft | 465 kts | 161° |
| 2026-04-23 18:52 | 54.78901 | -3.56129 | 31818 ft | 465 kts | 161° |
| 2026-04-23 18:53 | 54.75823 | -3.54365 | 32098 ft | 465 kts | 161° |
| 2026-04-23 18:53 | 54.72744 | -3.52602 | 32378 ft | 465 kts | 161° |
| 2026-04-23 18:53 | 54.69694 | -3.50854 | 32651 ft | 466 kts | 161° |
| 2026-04-23 18:53 | 54.66619 | -3.49094 | 32938 ft | 466 kts | 161° |
| 2026-04-23 18:54 | 54.63536 | -3.47334 | 33220 ft | 466 kts | 161° |
| 2026-04-23 18:54 | 54.60448 | -3.45570 | 33503 ft | 466 kts | 161° |
| 2026-04-23 18:54 | 54.57360 | -3.43813 | 33784 ft | 466 kts | 161° |
| 2026-04-23 18:54 | 54.54274 | -3.42064 | 34067 ft | 467 kts | 161° |
| 2026-04-23 18:55 | 54.51223 | -3.40334 | 34319 ft | 467 kts | 161° |
| 2026-04-23 18:55 | 54.48126 | -3.38577 | 34585 ft | 467 kts | 161° |
| 2026-04-23 18:55 | 54.45041 | -3.36835 | 34861 ft | 466 kts | 161° |
| 2026-04-23 18:55 | 54.41958 | -3.35100 | 35130 ft | 465 kts | 161° |
| 2026-04-23 18:56 | 54.39917 | -3.33951 | 35305 ft | 465 kts | 161° |
| 2026-04-23 18:56 | 54.35806 | -3.31635 | 35652 ft | 464 kts | 161° |
| 2026-04-23 18:56 | 54.32770 | -3.29928 | 35910 ft | 463 kts | 161° |
| 2026-04-23 18:56 | 54.29711 | -3.28215 | 36162 ft | 462 kts | 161° |
| 2026-04-23 18:57 | 54.26659 | -3.26508 | 36386 ft | 461 kts | 161° |
| 2026-04-23 18:57 | 54.23604 | -3.24801 | 36617 ft | 460 kts | 161° |
| 2026-04-23 18:57 | 54.20561 | -3.23104 | 36852 ft | 459 kts | 161° |
| 2026-04-23 18:57 | 54.17553 | -3.21427 | 37064 ft | 458 kts | 161° |
| 2026-04-23 18:58 | 54.14523 | -3.19735 | 37285 ft | 457 kts | 161° |
| 2026-04-23 18:58 | 54.11495 | -3.18049 | 37404 ft | 457 kts | 161° |
| 2026-04-23 18:58 | 54.08472 | -3.16372 | 37422 ft | 456 kts | 161° |
| 2026-04-23 18:59 | 54.02439 | -3.13033 | 37413 ft | 455 kts | 161° |
| 2026-04-23 18:59 | 53.96441 | -3.09720 | 37407 ft | 455 kts | 161° |
| 2026-04-23 19:00 | 53.90397 | -3.06397 | 37411 ft | 455 kts | 161° |
| 2026-04-23 19:00 | 53.84358 | -3.03092 | 37416 ft | 456 kts | 161° |
| 2026-04-23 19:01 | 53.78350 | -2.99806 | 37416 ft | 456 kts | 161° |
| 2026-04-23 19:01 | 53.72288 | -2.96496 | 37406 ft | 456 kts | 161° |
| 2026-04-23 19:02 | 53.67258 | -2.93762 | 37410 ft | 456 kts | 161° |
| 2026-04-23 19:02 | 53.60179 | -2.89931 | 37421 ft | 457 kts | 162° |
| 2026-04-23 19:03 | 53.54155 | -2.86673 | 37424 ft | 457 kts | 161° |
| 2026-04-23 19:03 | 53.48102 | -2.83407 | 37418 ft | 457 kts | 162° |
| 2026-04-23 19:04 | 53.42035 | -2.80157 | 37418 ft | 457 kts | 162° |
| 2026-04-23 19:04 | 53.35963 | -2.76910 | 37418 ft | 457 kts | 162° |
| 2026-04-23 19:05 | 53.29935 | -2.73689 | 37419 ft | 457 kts | 162° |
| 2026-04-23 19:05 | 53.23870 | -2.70453 | 37426 ft | 457 kts | 162° |
| 2026-04-23 19:06 | 53.18821 | -2.67778 | 37424 ft | 457 kts | 162° |
| 2026-04-23 19:06 | 53.12743 | -2.64558 | 37421 ft | 457 kts | 162° |
| 2026-04-23 19:07 | 53.06711 | -2.61375 | 37423 ft | 457 kts | 162° |
| 2026-04-23 19:07 | 53.00629 | -2.58172 | 37426 ft | 457 kts | 162° |
| 2026-04-23 19:08 | 52.94592 | -2.55006 | 37417 ft | 457 kts | 162° |
| 2026-04-23 19:08 | 52.88516 | -2.51832 | 37376 ft | 458 kts | 162° |
| 2026-04-23 19:08 | 52.85470 | -2.50238 | 37105 ft | 458 kts | 162° |
| 2026-04-23 19:09 | 52.82482 | -2.48590 | 36852 ft | 458 kts | 157° |
| 2026-04-23 19:09 | 52.79604 | -2.46322 | 36400 ft | 458 kts | 149° |
| 2026-04-23 19:09 | 52.76880 | -2.43417 | 35528 ft | 462 kts | 144° |
| 2026-04-23 19:09 | 52.74247 | -2.40483 | 34708 ft | 465 kts | 144° |
| 2026-04-23 19:10 | 52.71543 | -2.37475 | 33761 ft | 470 kts | 144° |
| 2026-04-23 19:10 | 52.68816 | -2.34454 | 32893 ft | 471 kts | 144° |
| 2026-04-23 19:10 | 52.66102 | -2.31470 | 32405 ft | 464 kts | 144° |
| 2026-04-23 19:10 | 52.63422 | -2.28535 | 31793 ft | 461 kts | 144° |
| 2026-04-23 19:11 | 52.60787 | -2.25657 | 31207 ft | 457 kts | 144° |
| 2026-04-23 19:11 | 52.58136 | -2.22762 | 30614 ft | 454 kts | 144° |
| 2026-04-23 19:11 | 52.55510 | -2.19896 | 29961 ft | 451 kts | 144° |
| 2026-04-23 19:11 | 52.52898 | -2.17045 | 29395 ft | 446 kts | 144° |
| 2026-04-23 19:12 | 52.50328 | -2.14244 | 28821 ft | 441 kts | 144° |
| 2026-04-23 19:12 | 52.47782 | -2.11472 | 28263 ft | 436 kts | 144° |
| 2026-04-23 19:12 | 52.45298 | -2.08770 | 27729 ft | 432 kts | 144° |
| 2026-04-23 19:12 | 52.42799 | -2.06057 | 27187 ft | 428 kts | 144° |
| 2026-04-23 19:13 | 52.40323 | -2.03377 | 26663 ft | 424 kts | 144° |
| 2026-04-23 19:13 | 52.37865 | -2.00723 | 26144 ft | 420 kts | 144° |
| 2026-04-23 19:13 | 52.35435 | -1.98101 | 25657 ft | 415 kts | 144° |
| 2026-04-23 19:13 | 52.33026 | -1.95503 | 25163 ft | 411 kts | 144° |
| 2026-04-23 19:14 | 52.30650 | -1.92943 | 24683 ft | 407 kts | 144° |
| 2026-04-23 19:14 | 52.28322 | -1.90441 | 24214 ft | 404 kts | 144° |
| 2026-04-23 19:14 | 52.25984 | -1.87929 | 23693 ft | 400 kts | 144° |
| 2026-04-23 19:14 | 52.23661 | -1.85431 | 23215 ft | 395 kts | 144° |
| 2026-04-23 19:15 | 52.21372 | -1.82971 | 22746 ft | 391 kts | 144° |
| 2026-04-23 19:15 | 52.19110 | -1.80543 | 22278 ft | 387 kts | 144° |
| 2026-04-23 19:15 | 52.16894 | -1.78171 | 21834 ft | 383 kts | 145° |
| 2026-04-23 19:15 | 52.14667 | -1.75798 | 21370 ft | 380 kts | 144° |
| 2026-04-23 19:16 | 52.12457 | -1.73445 | 20891 ft | 377 kts | 144° |
| 2026-04-23 19:16 | 52.10266 | -1.71116 | 20426 ft | 374 kts | 144° |
| 2026-04-23 19:16 | 52.08096 | -1.68807 | 20089 ft | 369 kts | 145° |
| 2026-04-23 19:17 | 52.03856 | -1.64293 | 19456 ft | 363 kts | 144° |
| 2026-04-23 19:17 | 52.01746 | -1.62050 | 19140 ft | 361 kts | 144° |
| 2026-04-23 19:17 | 51.99647 | -1.59823 | 18790 ft | 359 kts | 144° |
| 2026-04-23 19:17 | 51.97548 | -1.57603 | 18439 ft | 357 kts | 145° |
| 2026-04-23 19:18 | 51.95467 | -1.55405 | 18130 ft | 355 kts | 144° |
| 2026-04-23 19:18 | 51.93420 | -1.53247 | 17821 ft | 354 kts | 145° |
| 2026-04-23 19:18 | 51.91355 | -1.51070 | 17510 ft | 352 kts | 145° |
| 2026-04-23 19:18 | 51.89300 | -1.48907 | 17204 ft | 350 kts | 145° |
| 2026-04-23 19:19 | 51.85256 | -1.44654 | 16589 ft | 346 kts | 144° |
| 2026-04-23 19:19 | 51.83231 | -1.42530 | 16291 ft | 345 kts | 144° |
| 2026-04-23 19:20 | 51.79225 | -1.38340 | 15692 ft | 341 kts | 144° |
| 2026-04-23 19:20 | 51.77236 | -1.36254 | 15429 ft | 339 kts | 144° |
| 2026-04-23 19:20 | 51.75283 | -1.34204 | 15366 ft | 338 kts | 144° |
| 2026-04-23 19:20 | 51.73303 | -1.32126 | 15381 ft | 338 kts | 144° |
| 2026-04-23 19:21 | 51.71321 | -1.30051 | 15382 ft | 338 kts | 144° |
| 2026-04-23 19:21 | 51.67361 | -1.25930 | 15384 ft | 338 kts | 144° |
| 2026-04-23 19:21 | 51.65405 | -1.23899 | 15383 ft | 338 kts | 144° |
| 2026-04-23 19:22 | 51.63429 | -1.21849 | 15382 ft | 338 kts | 144° |
| 2026-04-23 19:22 | 51.61448 | -1.19793 | 15385 ft | 338 kts | 144° |
| 2026-04-23 19:22 | 51.57492 | -1.15700 | 15382 ft | 338 kts | 144° |
| 2026-04-23 19:23 | 51.55535 | -1.13677 | 15381 ft | 338 kts | 144° |
| 2026-04-23 19:23 | 51.53541 | -1.11614 | 15383 ft | 338 kts | 144° |
| 2026-04-23 19:23 | 51.51563 | -1.09569 | 15384 ft | 337 kts | 144° |
| 2026-04-23 19:24 | 51.47606 | -1.05489 | 15384 ft | 337 kts | 144° |
| 2026-04-23 19:24 | 51.45657 | -1.03487 | 15384 ft | 337 kts | 144° |
| 2026-04-23 19:24 | 51.41703 | -0.99422 | 15383 ft | 337 kts | 144° |
| 2026-04-23 19:25 | 51.37736 | -0.95353 | 15382 ft | 337 kts | 144° |
| 2026-04-23 19:25 | 51.33804 | -0.91329 | 15384 ft | 337 kts | 144° |
| 2026-04-23 19:26 | 51.29838 | -0.87279 | 15384 ft | 337 kts | 144° |
| 2026-04-23 19:26 | 51.27866 | -0.85267 | 15383 ft | 337 kts | 144° |
| 2026-04-23 19:27 | 51.23903 | -0.81231 | 15382 ft | 337 kts | 144° |
| 2026-04-23 19:27 | 51.17984 | -0.75230 | 15222 ft | 336 kts | 144° |
| 2026-04-23 19:28 | 51.14162 | -0.71367 | 14963 ft | 313 kts | 144° |
| 2026-04-23 19:28 | 51.10622 | -0.67799 | 14131 ft | 294 kts | 144° |
| 2026-04-23 19:29 | 51.08906 | -0.66068 | 13489 ft | 290 kts | 144° |
| 2026-04-23 19:29 | 51.05683 | -0.62344 | 12221 ft | 281 kts | 129° |
| 2026-04-23 19:30 | 51.03712 | -0.57095 | 11505 ft | 277 kts | 114° |
| 2026-04-23 19:30 | 51.02856 | -0.54362 | 11146 ft | 275 kts | 115° |
| 2026-04-23 19:30 | 51.01150 | -0.48945 | 10447 ft | 273 kts | 115° |
| 2026-04-23 19:31 | 51.00299 | -0.46251 | 10089 ft | 271 kts | 115° |
| 2026-04-23 19:31 | 50.99464 | -0.43604 | 9690 ft | 270 kts | 115° |
| 2026-04-23 19:31 | 50.98627 | -0.40941 | 9399 ft | 268 kts | 115° |
| 2026-04-23 19:31 | 50.97791 | -0.38279 | 9353 ft | 269 kts | 115° |
| 2026-04-23 19:32 | 50.96956 | -0.35625 | 9359 ft | 270 kts | 115° |
| 2026-04-23 19:32 | 50.96108 | -0.32942 | 9358 ft | 270 kts | 115° |
| 2026-04-23 19:32 | 50.95264 | -0.30274 | 9359 ft | 270 kts | 115° |
| 2026-04-23 19:32 | 50.94428 | -0.27641 | 9357 ft | 270 kts | 115° |
| 2026-04-23 19:33 | 50.93581 | -0.24968 | 9358 ft | 270 kts | 115° |
| 2026-04-23 19:33 | 50.92736 | -0.22300 | 9355 ft | 270 kts | 115° |
| 2026-04-23 19:33 | 50.91043 | -0.16974 | 9356 ft | 270 kts | 115° |
| 2026-04-23 19:34 | 50.90205 | -0.14347 | 9357 ft | 270 kts | 115° |
| 2026-04-23 19:34 | 50.89357 | -0.11681 | 9357 ft | 270 kts | 115° |
| 2026-04-23 19:34 | 50.88065 | -0.06138 | 9364 ft | 269 kts | 97° |
| 2026-04-23 19:35 | 50.87826 | -0.03239 | 9359 ft | 269 kts | 96° |
| 2026-04-23 19:35 | 50.87604 | -0.00301 | 9362 ft | 269 kts | 96° |
| 2026-04-23 19:35 | 50.87384 | 0.02646 | 9365 ft | 268 kts | 96° |
| 2026-04-23 19:35 | 50.87165 | 0.05587 | 9366 ft | 269 kts | 96° |
| 2026-04-23 19:36 | 50.86943 | 0.08537 | 9369 ft | 269 kts | 96° |
| 2026-04-23 19:36 | 50.86722 | 0.11475 | 9369 ft | 268 kts | 96° |
| 2026-04-23 19:36 | 50.86502 | 0.14414 | 9373 ft | 269 kts | 96° |
| 2026-04-23 19:36 | 50.86284 | 0.17324 | 9375 ft | 269 kts | 96° |
| 2026-04-23 19:37 | 50.86095 | 0.20268 | 9376 ft | 268 kts | 89° |
| 2026-04-23 19:37 | 50.86524 | 0.23119 | 9379 ft | 270 kts | 63° |
| 2026-04-23 19:37 | 50.87779 | 0.25344 | 9395 ft | 275 kts | 36° |
| 2026-04-23 19:37 | 50.89552 | 0.26406 | 9400 ft | 283 kts | 9° |
| 2026-04-23 19:38 | 50.91530 | 0.26075 | 9405 ft | 291 kts | 343° |
| 2026-04-23 19:38 | 50.93303 | 0.24434 | 9153 ft | 298 kts | 324° |
| 2026-04-23 19:38 | 50.94887 | 0.22322 | 8791 ft | 295 kts | 321° |
| 2026-04-23 19:38 | 50.96408 | 0.20216 | 8439 ft | 292 kts | 321° |
| 2026-04-23 19:39 | 50.97930 | 0.18097 | 8092 ft | 288 kts | 321° |
| 2026-04-23 19:39 | 50.99425 | 0.16013 | 7746 ft | 285 kts | 321° |
| 2026-04-23 19:39 | 51.00908 | 0.13939 | 7453 ft | 280 kts | 321° |
| 2026-04-23 19:39 | 51.02333 | 0.11945 | 7381 ft | 265 kts | 321° |
| 2026-04-23 19:40 | 51.03692 | 0.10036 | 7379 ft | 258 kts | 321° |
| 2026-04-23 19:40 | 51.05033 | 0.08151 | 7388 ft | 257 kts | 321° |
| 2026-04-23 19:40 | 51.06355 | 0.06288 | 7381 ft | 256 kts | 321° |
| 2026-04-23 19:40 | 51.07689 | 0.04408 | 7383 ft | 256 kts | 321° |
| 2026-04-23 19:41 | 51.09024 | 0.02523 | 7381 ft | 256 kts | 321° |
| 2026-04-23 19:41 | 51.10160 | 0.00366 | 7384 ft | 260 kts | 296° |
| 2026-04-23 19:41 | 51.10541 | -0.02463 | 7384 ft | 261 kts | 268° |
| 2026-04-23 19:41 | 51.10380 | -0.05323 | 7385 ft | 262 kts | 262° |
| 2026-04-23 19:42 | 51.10136 | -0.08203 | 7385 ft | 262 kts | 261° |
| 2026-04-23 19:42 | 51.09879 | -0.11086 | 7380 ft | 262 kts | 261° |
| 2026-04-23 19:42 | 51.09619 | -0.13960 | 7380 ft | 262 kts | 261° |
| 2026-04-23 19:42 | 51.09359 | -0.16830 | 7380 ft | 262 kts | 261° |
| 2026-04-23 19:43 | 51.09096 | -0.19709 | 7381 ft | 262 kts | 261° |
| 2026-04-23 19:43 | 51.08839 | -0.22542 | 7382 ft | 262 kts | 261° |
| 2026-04-23 19:43 | 51.08577 | -0.25413 | 7385 ft | 262 kts | 261° |
| 2026-04-23 19:43 | 51.08314 | -0.28289 | 7384 ft | 262 kts | 261° |
| 2026-04-23 19:44 | 51.07982 | -0.31145 | 7380 ft | 261 kts | 248° |
| 2026-04-23 19:44 | 51.07142 | -0.33680 | 7095 ft | 261 kts | 233° |
| 2026-04-23 19:44 | 51.06094 | -0.36032 | 6780 ft | 260 kts | 231° |
| 2026-04-23 19:44 | 51.05027 | -0.38345 | 6423 ft | 258 kts | 231° |
| 2026-04-23 19:45 | 51.03960 | -0.40648 | 6063 ft | 257 kts | 231° |
| 2026-04-23 19:45 | 51.02900 | -0.42933 | 5708 ft | 256 kts | 231° |
| 2026-04-23 19:45 | 51.01843 | -0.45218 | 5361 ft | 255 kts | 231° |
| 2026-04-23 19:45 | 51.00793 | -0.47494 | 4979 ft | 255 kts | 231° |
| 2026-04-23 19:46 | 50.99762 | -0.49741 | 4637 ft | 255 kts | 231° |
| 2026-04-23 19:46 | 50.98729 | -0.52029 | 4275 ft | 255 kts | 235° |
| 2026-04-23 19:46 | 50.98152 | -0.54672 | 4007 ft | 254 kts | 267° |
| 2026-04-23 19:46 | 50.98500 | -0.57292 | 3989 ft | 235 kts | 302° |
| 2026-04-23 19:47 | 50.99151 | -0.58582 | 3994 ft | 219 kts | 326° |
| 2026-04-23 19:47 | 51.00882 | -0.59602 | 4036 ft | 196 kts | 358° |
| 2026-04-23 19:47 | 51.02227 | -0.59814 | 4001 ft | 192 kts | 6° |
| 2026-04-23 19:47 | 51.03447 | -0.59219 | 4015 ft | 182 kts | 35° |
| 2026-04-23 19:48 | 51.04504 | -0.58110 | 4010 ft | 182 kts | 40° |
| 2026-04-23 19:48 | 51.05187 | -0.57329 | 4013 ft | 182 kts | 41° |
| 2026-04-23 19:48 | 51.06547 | -0.55767 | 4011 ft | 181 kts | 41° |
| 2026-04-23 19:48 | 51.07236 | -0.54969 | 4017 ft | 181 kts | 41° |
| 2026-04-23 19:49 | 51.08260 | -0.53790 | 4006 ft | 181 kts | 41° |
| 2026-04-23 19:49 | 51.09288 | -0.52618 | 4011 ft | 182 kts | 41° |
| 2026-04-23 19:49 | 51.10138 | -0.51224 | 3984 ft | 176 kts | 62° |
| 2026-04-23 19:49 | 51.10570 | -0.49435 | 3837 ft | 172 kts | 80° |
| 2026-04-23 19:50 | 51.10832 | -0.47565 | 3634 ft | 172 kts | 80° |
| 2026-04-23 19:50 | 51.11090 | -0.45730 | 3411 ft | 171 kts | 79° |
| 2026-04-23 19:50 | 51.11347 | -0.43903 | 3186 ft | 166 kts | 80° |
| 2026-04-23 19:50 | 51.11596 | -0.42127 | 2968 ft | 163 kts | 79° |
| 2026-04-23 19:51 | 51.11841 | -0.40381 | 2744 ft | 159 kts | 79° |
| 2026-04-23 19:51 | 51.12080 | -0.38680 | 2540 ft | 156 kts | 79° |
| 2026-04-23 19:51 | 51.12315 | -0.36998 | 2327 ft | 154 kts | 79° |
| 2026-04-23 19:51 | 51.12548 | -0.35331 | 2112 ft | 153 kts | 79° |
| 2026-04-23 19:52 | 51.12772 | -0.33730 | 1907 ft | 147 kts | 78° |
| 2026-04-23 19:52 | 51.12990 | -0.32169 | 1709 ft | 143 kts | 78° |
| 2026-04-23 19:52 | 51.13214 | -0.30557 | 1513 ft | 152 kts | 78° |
| 2026-04-23 19:52 | 51.13432 | -0.28997 | 1299 ft | 137 kts | 76° |
| 2026-04-23 19:53 | 51.13631 | -0.27566 | 1112 ft | 131 kts | 77° |
| 2026-04-23 19:53 | 51.13824 | -0.26178 | 933 ft | 128 kts | 77° |
| 2026-04-23 19:53 | 51.14016 | -0.24795 | 755 ft | 129 kts | 77° |
| 2026-04-23 19:53 | 51.14210 | -0.23396 | 594 ft | 128 kts | 77° |
| 2026-04-23 19:54 | 51.14401 | -0.22013 | 414 ft | 129 kts | 77° |
| 2026-04-23 19:54 | 51.14594 | -0.20627 | 240 ft | 127 kts | 76° |
| 2026-04-23 19:54 | 51.14760 | -0.19429 | 207 ft | 77 kts | 77° |
| 2026-04-23 19:54 | 51.14833 | -0.18900 | 207 ft | 40 kts | 77° |
| 2026-04-23 19:55 | 51.14889 | -0.18622 | 202 ft | 21 kts | 57° |
| 2026-04-23 19:55 | 51.14978 | -0.18440 | 201 ft | 19 kts | 51° |
| 2026-04-23 19:55 | 51.15031 | -0.18333 | 204 ft | 11 kts | 51° |
| 2026-04-23 19:55 | 51.15063 | -0.18270 | 208 ft | 0 kts | 50° |
| 2026-04-23 19:56 | 51.15064 | -0.18269 | 208 ft | 0 kts | 50° |
| 2026-04-23 19:56 | 51.15069 | -0.18258 | 206 ft | 4 kts | 51° |
| 2026-04-23 19:56 | 51.15089 | -0.18220 | 202 ft | 5 kts | 51° |
| 2026-04-23 19:56 | 51.15113 | -0.18165 | 206 ft | 7 kts | 61° |
| 2026-04-23 19:57 | 51.15126 | -0.18092 | 205 ft | 7 kts | 76° |
| 2026-04-23 19:57 | 51.15155 | -0.18047 | 212 ft | 7 kts | 348° |
| 2026-04-23 19:57 | 51.15205 | -0.18081 | 206 ft | 8 kts | 345° |
| 2026-04-23 19:57 | 51.15261 | -0.18102 | 202 ft | 8 kts | 347° |
| 2026-04-23 19:58 | 51.15310 | -0.18118 | 208 ft | 7 kts | 348° |
| 2026-04-23 19:58 | 51.15360 | -0.18135 | 208 ft | 7 kts | 348° |
| 2026-04-23 19:58 | 51.15418 | -0.18156 | 202 ft | 13 kts | 347° |
| 2026-04-23 19:58 | 51.15505 | -0.18195 | 202 ft | 13 kts | 347° |
| 2026-04-23 19:59 | 51.15588 | -0.18224 | 202 ft | 9 kts | 347° |
| 2026-04-23 19:59 | 51.15645 | -0.18228 | 206 ft | 8 kts | 20° |
| 2026-04-23 19:59 | 51.15673 | -0.18144 | 204 ft | 10 kts | 77° |
| 2026-04-23 19:59 | 51.15690 | -0.18021 | 204 ft | 13 kts | 78° |
| 2026-04-23 20:00 | 51.15704 | -0.17922 | 206 ft | 10 kts | 77° |
| 2026-04-23 20:00 | 51.15715 | -0.17868 | 204 ft | 4 kts | 49° |
| 2026-04-23 20:00 | 51.15732 | -0.17869 | 205 ft | 2 kts | 358° |
| 2026-04-23 20:00 | 51.15743 | -0.17873 | 201 ft | 1 kts | 349° |
| 2026-04-23 20:01 | 51.15759 | -0.17878 | 201 ft | 2 kts | 348° |
| 2026-04-23 20:01 | 51.15773 | -0.17883 | 201 ft | 2 kts | 348° |
| 2026-04-23 20:01 | 51.15782 | -0.17886 | 206 ft | 0 kts | 348° |